createdAt,value
2023-05-12T00:03:57.454Z,101025.65
2023-05-12T00:08:59.152Z,101029.33
2023-05-12T00:14:01.188Z,101032.80
2023-05-12T00:19:02.822Z,101029.56
2023-05-12T00:24:05.133Z,101029.27
2023-05-12T00:29:06.655Z,101031.36
2023-05-12T00:34:08.187Z,101033.81
2023-05-12T00:39:10.314Z,101034.17
2023-05-12T00:44:12.236Z,101035.04
2023-05-12T00:49:14.009Z,101033.99
2023-05-12T00:54:16.833Z,101040.55
2023-05-12T00:59:18.339Z,101047.81
2023-05-12T01:04:19.966Z,101047.39
2023-05-12T01:09:21.463Z,101050.88
2023-05-12T01:14:22.976Z,101056.60
2023-05-12T01:19:50.441Z,101056.50
2023-05-12T01:25:01.552Z,101063.08
2023-05-12T01:30:05.129Z,101060.34
2023-05-12T01:35:07.141Z,101062.42
2023-05-12T01:40:09.531Z,101060.55
2023-05-12T01:45:11.885Z,101070.14
2023-05-12T01:50:13.376Z,101065.85
2023-05-12T01:55:14.947Z,101066.54
2023-05-12T02:00:17.186Z,101068.45
2023-05-12T02:05:18.741Z,101070.70
2023-05-12T02:10:20.845Z,101070.02
2023-05-12T02:15:22.890Z,101072.77
2023-05-12T02:20:24.500Z,101069.67
2023-05-12T02:25:26.036Z,101069.69
2023-05-12T02:30:33.947Z,101072.61
2023-05-12T02:35:35.446Z,101075.70
2023-05-12T02:40:36.956Z,101078.62
2023-05-12T02:45:39.528Z,101081.54
2023-05-12T02:50:41.079Z,101084.13
2023-05-12T02:55:42.768Z,101080.38
2023-05-12T03:00:48.699Z,101088.23
2023-05-12T03:05:53.681Z,101092.17
2023-05-12T03:10:55.260Z,101091.13
2023-05-12T03:16:01.213Z,101089.40
2023-05-12T03:21:03.648Z,101093.31
2023-05-12T03:26:05.169Z,101091.80
2023-05-12T03:31:06.709Z,101090.92
2023-05-12T03:36:08.792Z,101089.62
2023-05-12T03:41:10.294Z,101090.99
2023-05-12T03:46:12.102Z,101090.63
2023-05-12T03:51:13.654Z,101099.57
2023-05-12T03:56:15.747Z,101109.52
2023-05-12T04:01:17.260Z,101106.96
2023-05-12T04:06:18.803Z,101110.73
2023-05-12T04:11:24.602Z,101115.54
2023-05-12T04:16:26.132Z,101122.64
2023-05-12T04:21:42.256Z,101122.89
2023-05-12T04:26:43.828Z,101129.63
2023-05-12T04:31:45.323Z,101131.08
2023-05-12T04:36:47.043Z,101131.02
2023-05-12T04:41:48.627Z,101130.70
2023-05-12T04:46:53.470Z,101130.80
2023-05-12T04:51:55.290Z,101133.75
2023-05-12T04:56:56.821Z,101136.42
2023-05-12T05:01:58.592Z,101134.11
2023-05-12T05:07:00.456Z,101143.53
2023-05-12T05:12:02.104Z,101149.52
2023-05-12T05:17:03.811Z,101145.73
2023-05-12T05:22:05.440Z,101141.61
2023-05-12T05:27:06.977Z,101145.36
2023-05-12T05:32:08.559Z,101153.40
2023-05-12T05:37:10.029Z,101157.73
2023-05-12T05:42:13.001Z,101157.23
2023-05-12T05:47:14.520Z,101161.09
2023-05-12T05:52:16.078Z,101161.09
2023-05-12T05:57:17.566Z,101163.60
2023-05-12T06:02:19.316Z,101166.75
2023-05-12T06:07:22.196Z,101170.63
2023-05-12T06:12:23.912Z,101172.91
2023-05-12T06:17:25.509Z,101174.96
2023-05-12T06:22:27.959Z,101175.65
2023-05-12T06:27:29.591Z,101181.17
2023-05-12T06:32:31.259Z,101172.77
2023-05-12T06:37:32.800Z,101177.60
2023-05-12T06:42:34.321Z,101179.27
2023-05-12T06:47:36.182Z,101179.66
2023-05-12T06:52:37.751Z,101182.60
2023-05-12T06:57:39.260Z,101178.25
2023-05-12T07:02:41.415Z,101179.86
2023-05-12T07:07:42.923Z,101182.86
2023-05-12T07:12:44.564Z,101173.17
2023-05-12T07:17:46.187Z,101175.30
2023-05-12T07:22:48.218Z,101171.50
2023-05-12T07:27:50.411Z,101168.18
2023-05-12T07:32:53.216Z,101168.16
2023-05-12T07:37:54.773Z,101166.48
2023-05-12T07:42:56.352Z,101171.07
2023-05-12T07:47:57.949Z,101167.88
2023-05-12T07:52:59.628Z,101175.36
2023-05-12T07:58:01.381Z,101175.88
2023-05-12T08:03:03.115Z,101173.11
2023-05-12T08:08:05.162Z,101175.06
2023-05-12T08:13:06.697Z,101175.36
2023-05-12T08:18:08.379Z,101173.56
2023-05-12T08:23:10.146Z,101176.80
2023-05-12T08:28:13.060Z,101176.30
2023-05-12T08:33:14.594Z,101181.33
2023-05-12T08:38:16.647Z,101182.94
2023-05-12T08:43:26.298Z,101176.96
2023-05-12T08:48:29.355Z,101178.07
2023-05-12T08:53:33.500Z,101176.05
2023-05-12T08:58:42.113Z,101169.46
2023-05-12T09:03:44.507Z,101174.90
2023-05-12T09:08:46.156Z,101171.21
2023-05-12T09:13:50.675Z,101166.83
2023-05-12T09:18:57.645Z,101173.79
2023-05-12T09:24:07.200Z,101172.46
2023-05-12T09:29:08.885Z,101162.00
2023-05-12T09:34:10.639Z,101160.64
2023-05-12T09:39:13.037Z,101154.48
2023-05-12T09:44:19.155Z,101148.02
2023-05-12T09:49:20.875Z,101151.42
2023-05-12T09:54:31.024Z,101152.45
2023-05-12T09:59:34.431Z,101144.35
2023-05-12T10:04:51.124Z,101154.36
2023-05-12T10:09:56.607Z,101150.88
2023-05-12T10:15:02.354Z,101154.16
2023-05-12T10:20:07.634Z,101139.58
2023-05-12T10:25:09.846Z,101135.14
2023-05-12T10:30:12.343Z,101133.92
2023-05-12T10:35:15.269Z,101138.94
2023-05-12T10:40:26.750Z,101135.08
2023-05-12T10:45:28.467Z,101129.16
2023-05-12T10:50:30.583Z,101128.52
2023-05-12T10:55:42.891Z,101126.73
2023-05-12T11:00:47.960Z,101126.00
2023-05-12T11:06:07.239Z,101128.00
2023-05-12T11:11:09.198Z,101129.27
2023-05-12T11:16:13.503Z,101120.31
2023-05-12T11:21:15.161Z,101120.06
2023-05-12T11:26:20.071Z,101119.64
2023-05-12T11:31:22.737Z,101119.58
2023-05-12T11:36:24.347Z,101120.56
2023-05-12T11:41:26.466Z,101120.71
2023-05-12T11:46:32.021Z,101116.61
2023-05-12T11:51:33.909Z,101111.57
2023-05-12T11:56:35.533Z,101113.33
2023-05-12T12:01:46.644Z,101102.95
2023-05-12T12:06:48.365Z,101105.81
2023-05-12T12:11:49.844Z,101108.48
2023-05-12T12:16:51.321Z,101104.51
2023-05-12T12:21:53.016Z,101103.39
2023-05-12T12:26:54.554Z,101098.75
2023-05-12T12:31:56.124Z,101084.69
2023-05-12T12:36:57.626Z,101092.80
2023-05-12T12:41:59.201Z,101087.77
2023-05-12T12:47:00.747Z,101088.41
2023-05-12T12:52:02.292Z,101090.64
2023-05-12T12:57:04.652Z,101092.33
2023-05-12T13:02:06.975Z,101085.08
2023-05-12T13:07:08.789Z,101076.62
2023-05-12T13:12:10.370Z,101085.96
2023-05-12T13:17:12.218Z,101081.04
2023-05-12T13:22:13.724Z,101074.70
2023-05-12T13:27:15.208Z,101074.74
2023-05-12T13:32:17.252Z,101073.20
2023-05-12T13:37:18.842Z,101073.09
2023-05-12T13:42:22.410Z,101063.16
2023-05-12T13:47:23.903Z,101061.88
2023-05-12T13:52:25.420Z,101063.54
2023-05-12T13:57:26.893Z,101060.04
2023-05-12T14:02:28.461Z,101053.58
2023-05-12T14:07:30.042Z,101050.92
2023-05-12T14:12:31.530Z,101045.73
2023-05-12T14:17:33.137Z,101048.81
2023-05-12T14:22:34.729Z,101049.15
2023-05-12T14:27:36.265Z,101041.92
2023-05-12T14:32:37.900Z,101040.84
2023-05-12T14:37:39.676Z,101040.35
2023-05-12T14:42:42.321Z,101041.42
2023-05-12T14:47:44.509Z,101040.18
2023-05-12T14:52:46.426Z,101035.83
2023-05-12T14:57:49.475Z,101031.08
2023-05-12T15:02:51.116Z,101030.48
2023-05-12T15:07:52.960Z,101035.21
2023-05-12T15:12:54.432Z,101031.04
2023-05-12T15:17:55.964Z,101029.59
2023-05-12T15:22:57.469Z,101034.05
2023-05-12T15:27:59.028Z,101031.78
2023-05-12T15:33:04.041Z,101029.12
2023-05-12T15:38:06.518Z,101029.55
2023-05-12T15:43:08.587Z,101038.39
2023-05-12T15:48:10.831Z,101031.98
2023-05-12T15:53:12.698Z,101035.42
2023-05-12T15:58:15.284Z,101036.39
2023-05-12T16:03:16.881Z,101035.70
2023-05-12T16:08:18.768Z,101038.27
2023-05-12T16:13:20.309Z,101033.62
2023-05-12T16:18:21.864Z,101032.52
2023-05-12T16:23:24.470Z,101030.87
2023-05-12T16:28:26.277Z,101031.25
2023-05-12T16:33:27.829Z,101029.21
2023-05-12T16:38:32.463Z,101029.71
2023-05-12T16:43:34.256Z,101034.19
2023-05-12T16:48:36.388Z,101033.09
2023-05-12T16:53:38.640Z,101031.00
2023-05-12T16:58:40.648Z,101034.17
2023-05-12T17:03:42.981Z,101036.41
2023-05-12T17:08:45.028Z,101039.27
2023-05-12T17:13:46.805Z,101038.26
2023-05-12T17:23:53.853Z,101041.50
2023-05-12T17:28:56.077Z,101038.50
2023-05-12T17:33:57.675Z,101047.45
2023-05-12T17:38:59.345Z,101049.25
2023-05-12T17:44:00.939Z,101052.04
2023-05-12T17:49:02.509Z,101056.06
2023-05-12T17:54:04.080Z,101056.02
2023-05-12T17:59:05.686Z,101058.04
2023-05-12T18:04:07.156Z,101063.95
2023-05-12T18:09:08.756Z,101066.75
2023-05-12T18:14:10.831Z,101071.48
2023-05-12T18:19:12.719Z,101075.66
2023-05-12T18:24:14.663Z,101077.27
2023-05-12T18:29:16.188Z,101083.30
2023-05-12T18:34:17.801Z,101088.84
2023-05-12T18:39:19.338Z,101093.04
2023-05-12T18:44:21.049Z,101098.96
2023-05-12T18:49:22.826Z,101107.59
2023-05-12T18:54:24.406Z,101109.54
2023-05-12T18:59:25.996Z,101111.55
2023-05-12T19:04:27.564Z,101115.84
2023-05-12T19:09:29.194Z,101115.30
2023-05-12T19:14:31.127Z,101112.48
2023-05-12T19:19:32.660Z,101117.22
2023-05-12T19:24:34.277Z,101118.30
2023-05-12T19:29:35.794Z,101117.06
2023-05-12T19:34:37.628Z,101117.79
2023-05-12T19:39:39.205Z,101114.17
2023-05-12T19:44:40.700Z,101116.95
2023-05-12T19:49:42.332Z,101119.13
2023-05-12T19:54:44.367Z,101119.92
2023-05-12T19:59:45.843Z,101127.09
2023-05-12T20:04:47.455Z,101129.14
2023-05-12T20:09:48.952Z,101128.53
2023-05-12T20:14:50.509Z,101134.44
2023-05-12T20:19:52.100Z,101129.23
2023-05-12T20:24:53.647Z,101129.83
2023-05-12T20:29:55.128Z,101129.89
2023-05-12T20:34:56.645Z,101128.87
2023-05-12T20:39:58.234Z,101124.42
2023-05-12T20:45:00.015Z,101123.59
2023-05-12T20:50:05.619Z,101122.86
2023-05-12T20:55:08.985Z,101126.05
2023-05-12T21:00:11.027Z,101124.28
2023-05-12T21:05:12.634Z,101127.66
2023-05-12T21:10:14.164Z,101131.36
2023-05-12T21:15:15.866Z,101132.30
2023-05-12T21:20:17.474Z,101136.90
2023-05-12T21:25:19.175Z,101138.11
2023-05-12T21:30:24.491Z,101140.45
2023-05-12T21:35:26.753Z,101143.77
2023-05-12T21:40:29.234Z,101147.22
2023-05-12T21:45:30.782Z,101148.61
2023-05-12T21:50:32.284Z,101152.23
2023-05-12T21:55:33.887Z,101154.39
2023-05-12T22:00:41.592Z,101155.69
2023-05-12T22:05:44.810Z,101151.80
2023-05-12T22:10:46.831Z,101155.87
2023-05-12T22:15:48.449Z,101155.18
2023-05-12T22:20:50.125Z,101158.17
2023-05-12T22:25:51.650Z,101158.98
2023-05-12T22:30:53.981Z,101158.20
2023-05-12T22:35:58.943Z,101153.15
2023-05-12T22:41:00.933Z,101154.29
2023-05-12T22:46:02.462Z,101150.25
2023-05-12T22:51:04.019Z,101147.67
2023-05-12T22:56:06.325Z,101145.11
2023-05-12T23:01:07.876Z,101146.52
2023-05-12T23:06:09.397Z,101143.70
2023-05-12T23:11:12.830Z,101147.86
2023-05-12T23:16:14.359Z,101147.45
2023-05-12T23:21:15.871Z,101150.69
2023-05-12T23:26:17.330Z,101155.71
2023-05-12T23:31:18.899Z,101160.17
2023-05-12T23:36:20.461Z,101157.08
2023-05-12T23:41:25.681Z,101154.30
2023-05-12T23:46:27.296Z,101153.95
2023-05-12T23:51:29.105Z,101153.61
2023-05-12T23:56:30.837Z,101151.59
